Hitachimaru — JD2063 — position and weather

sailwx.info

Track history (hours):
 
Tides and Currents Weather Stations Pressure Air Temp Water Temp Dewpoint Dewpoint Depression Visibility Wind Speed Wind Dir Waves Ship Positions

Hitachimaru

Last reported at 2016-Jun-18 10:10 UTC. Time now 2016-Jun-24 20:29 UTC.
Position N 34°37' E 134°57'.

Length 83 m; draft 4.7 m.

Type: Cargo ship. MMSI: 431301756.

Date/timePositionNaut miles runAvg speedWind from/ knotsBaromVisibWave heightAir tempDewpointWater temp
2016-Jun-18 10:10N 34°37' E 134°57'914.0
2016-Jun-18 09:33N 34°36' E 135°08'1212.2
2016-Jun-18 08:33N 34°38' E 135°23'4 3.7
2016-Jun-18 07:25N 34°40' E 135°27'0 0.0
2016-Jun-18 06:31N 34°40' E 135°27'0 0.0
2016-Jun-18 04:25N 34°40' E 135°27'0 0.0
2016-Jun-18 03:31N 34°40' E 135°27'0 0.0
2016-Jun-18 02:25N 34°40' E 135°27'0 0.0
2016-Jun-18 01:33N 34°40' E 135°27'6 5.8
2016-Jun-18 00:33N 34°37' E 135°21'4 1.4
2016-Jun-17 21:32N 34°33' E 135°22'10 9.8
2016-Jun-17 20:32N 34°28' E 135°12'10 9.9
2016-Jun-17 19:32N 34°21' E 135°04'1 1.0
2016-Jun-17 18:33N 34°21' E 135°03'1010.1
2016-Jun-17 17:33N 34°11' E 134°60'243 5.8
2016-Jun-15 23:32N 35°12' E 139°46'1110.9
2016-Jun-15 22:33N 35°22' E 139°42'7 6.9
2016-Jun-15 21:33N 35°22' E 139°51'0 0.4
2016-Jun-15 20:29N 35°22' E 139°51'0 0.0
2016-Jun-15 19:32N 35°22' E 139°51'0 0.0
2016-Jun-15 18:32N 35°22' E 139°51'0 0.0
2016-Jun-15 17:32N 35°22' E 139°51'0 0.0
2016-Jun-15 16:32N 35°22' E 139°51'0 0.0
2016-Jun-15 15:29N 35°22' E 139°51'0 0.0
2016-Jun-15 14:29N 35°22' E 139°51'0 0.0
2016-Jun-15 13:29N 35°22' E 139°51'0 0.0
2016-Jun-15 12:29N 35°22' E 139°51'0 0.0
2016-Jun-15 11:29N 35°22' E 139°51'0 0.0
2016-Jun-15 10:29N 35°22' E 139°51'0 0.0
2016-Jun-15 08:29N 35°22' E 139°51'0 0.0
2016-Jun-15 07:29N 35°22' E 139°51'0 0.0
2016-Jun-15 06:32N 35°22' E 139°51'0 0.0
2016-Jun-15 05:32N 35°22' E 139°51'0 0.0
2016-Jun-15 04:29N 35°22' E 139°51'0 0.0
2016-Jun-15 03:20N 35°22' E 139°51'0 0.0
2016-Jun-15 02:29N 35°22' E 139°51'0 0.0
2016-Jun-15 01:17N 35°22' E 139°51'0 0.0
2016-Jun-15 00:29N 35°22' E 139°51'0 0.0
2016-Jun-14 23:25N 35°22' E 139°51'0 0.1
2016-Jun-14 21:33N 35°22' E 139°51'2 1.6
2016-Jun-14 20:31N 35°22' E 139°49'0 0.0
2016-Jun-14 19:31N 35°22' E 139°49'0 0.0
2016-Jun-14 18:31N 35°22' E 139°49'0 0.0
2016-Jun-14 17:28N 35°22' E 139°49'0 0.0
2016-Jun-14 16:31N 35°22' E 139°49'0 0.0
2016-Jun-14 15:31N 35°22' E 139°49'0 0.0
2016-Jun-14 14:28N 35°22' E 139°49'0 0.0
2016-Jun-14 13:31N 35°22' E 139°49'0 0.0
2016-Jun-14 12:31N 35°22' E 139°49'0 0.0
2016-Jun-14 11:28N 35°23' E 139°49'0 0.1
2016-Jun-14 10:31N 35°23' E 139°49'0 0.0
2016-Jun-14 09:34N 35°22' E 139°49'0 0.0
2016-Jun-14 08:34N 35°22' E 139°49'3 2.8
2016-Jun-14 07:34N 35°25' E 139°49'17 8.6
2016-Jun-14 05:32N 35°41' E 139°57'0 0.0
2016-Jun-14 04:32N 35°41' E 139°57'0 0.0
2016-Jun-14 03:29N 35°41' E 139°57'0 0.0
2016-Jun-14 02:32N 35°41' E 139°57'0 0.0
2016-Jun-14 01:29N 35°41' E 139°57'0 0.0
2016-Jun-14 00:32N 35°41' E 139°57'0 0.0
2016-Jun-13 23:29N 35°41' E 139°57'0 0.0
2016-Jun-13 22:20N 35°41' E 139°57'0 0.0
2016-Jun-13 21:08N 35°41' E 139°57'0 0.0
2016-Jun-13 20:32N 35°41' E 139°57'0 0.5
2016-Jun-13 19:33N 35°41' E 139°57'0 0.5
2016-Jun-13 18:30N 35°40' E 139°57'0 0.0
2016-Jun-13 17:24N 35°40' E 139°57'0 0.0
2016-Jun-13 16:06N 35°40' E 139°57'0 0.0
2016-Jun-13 15:24N 35°40' E 139°57'0 0.0
2016-Jun-13 14:30N 35°40' E 139°57'0 0.0
2016-Jun-13 13:30N 35°40' E 139°57'0 0.0
2016-Jun-13 12:30N 35°40' E 139°57'0 0.0
2016-Jun-13 11:30N 35°40' E 139°57'0 0.0
2016-Jun-13 10:30N 35°40' E 139°57'0 0.0
2016-Jun-13 09:30N 35°40' E 139°57'0 0.0
2016-Jun-13 08:24N 35°40' E 139°57'0 0.0
2016-Jun-13 07:30N 35°40' E 139°57'0 0.0
2016-Jun-13 06:30N 35°40' E 139°57'0 0.0
2016-Jun-13 05:30N 35°40' E 139°57'0 0.0
2016-Jun-13 04:30N 35°40' E 139°57'0 0.0
2016-Jun-13 03:30N 35°40' E 139°57'0 0.0
2016-Jun-13 02:30N 35°40' E 139°57'0 0.0
2016-Jun-13 01:24N 35°40' E 139°57'0 0.0
2016-Jun-13 00:30N 35°40' E 139°57'0 0.0
2016-Jun-12 23:24N 35°40' E 139°57'0 0.2
2016-Jun-12 22:33N 35°40' E 139°57'3 3.5
2016-Jun-12 21:33N 35°37' E 139°58'0 0.0
2016-Jun-12 20:27N 35°37' E 139°58'0 0.0
2016-Jun-12 19:33N 35°37' E 139°58'0 0.0
2016-Jun-12 18:33N 35°37' E 139°58'0 0.1
2016-Jun-12 17:33N 35°37' E 139°58'0 0.0
2016-Jun-12 16:32N 35°37' E 139°58'0 0.0
2016-Jun-12 15:32N 35°37' E 139°58'0 0.0
2016-Jun-12 14:32N 35°37' E 139°58'0 0.0
2016-Jun-12 13:26N 35°37' E 139°58'0 0.0
2016-Jun-12 12:32N 35°37' E 139°58'0 0.0
2016-Jun-12 11:32N 35°37' E 139°58'0 0.0
2016-Jun-12 10:32N 35°37' E 139°58'0 0.0
2016-Jun-12 09:32N 35°37' E 139°58'0 0.0
2016-Jun-12 08:26N 35°37' E 139°58'3 3.7
2016-Jun-12 07:33N 35°34' E 139°56'1211.9
2016-Jun-12 06:33N 35°25' E 139°47'2210.8
2016-Jun-12 04:33N 35°03' E 139°43'1711.9
2016-Jun-12 03:08N 34°53' E 139°27'4511.2
2016-Jun-11 23:09N 34°34' E 138°38'182 9.3
2016-Jun-11 03:33N 34°10' E 134°59'1211.5
2016-Jun-11 02:31N 34°22' E 135°00'1212.0
2016-Jun-11 01:33N 34°29' E 135°11'1211.8
2016-Jun-11 00:33N 34°36' E 135°22'5 0.4
2016-Jun-10 13:12N 34°34' E 135°27'0 0.0
2016-Jun-10 08:31N 34°34' E 135°27'2 1.6
2016-Jun-10 07:31N 34°35' E 135°28'0 0.0
2016-Jun-10 06:31N 34°35' E 135°28'0 0.0
2016-Jun-10 05:19N 34°35' E 135°28'0 0.1
2016-Jun-10 04:25N 34°35' E 135°28'0 0.0
2016-Jun-10 03:25N 34°35' E 135°28'0 0.0
2016-Jun-10 01:25N 34°35' E 135°28'0 0.1
2016-Jun-10 00:31N 34°35' E 135°28'0 0.0
2016-Jun-09 14:30N 34°35' E 135°28'0 0.0
2016-Jun-09 02:28N 34°35' E 135°28'6 6.9
2016-Jun-09 01:33N 34°36' E 135°20'1312.8
2016-Jun-09 00:33N 34°35' E 135°05'1211.2
2016-Jun-08 23:28N 34°38' E 134°51'3 0.2
2016-Jun-08 10:24N 34°37' E 134°54'  
Track history (hours):
 
Tides and Currents Weather Stations Pressure Air Temp Water Temp Dewpoint Dewpoint Depression Visibility Wind Speed Wind Dir Waves Ship Positions

Hitachimaru

Last reported at 2016-Jun-18 10:10 UTC. Time now 2016-Jun-24 20:29 UTC.
Position N 34°37' E 134°57'.

Length 83 m; draft 4.7 m.

Type: Cargo ship. MMSI: 431301756.

Date/timePositionNaut miles runAvg speedWind from/ knotsBaromVisibWave heightAir tempDewpointWater temp
2016-Jun-18 10:10N 34°37' E 134°57'914.0
2016-Jun-18 09:33N 34°36' E 135°08'1212.2
2016-Jun-18 08:33N 34°38' E 135°23'4 3.7
2016-Jun-18 07:25N 34°40' E 135°27'0 0.0
2016-Jun-18 06:31N 34°40' E 135°27'0 0.0
2016-Jun-18 04:25N 34°40' E 135°27'0 0.0
2016-Jun-18 03:31N 34°40' E 135°27'0 0.0
2016-Jun-18 02:25N 34°40' E 135°27'0 0.0
2016-Jun-18 01:33N 34°40' E 135°27'6 5.8
2016-Jun-18 00:33N 34°37' E 135°21'4 1.4
2016-Jun-17 21:32N 34°33' E 135°22'10 9.8
2016-Jun-17 20:32N 34°28' E 135°12'10 9.9
2016-Jun-17 19:32N 34°21' E 135°04'1 1.0
2016-Jun-17 18:33N 34°21' E 135°03'1010.1
2016-Jun-17 17:33N 34°11' E 134°60'243 5.8
2016-Jun-15 23:32N 35°12' E 139°46'1110.9
2016-Jun-15 22:33N 35°22' E 139°42'7 6.9
2016-Jun-15 21:33N 35°22' E 139°51'0 0.4
2016-Jun-15 20:29N 35°22' E 139°51'0 0.0
2016-Jun-15 19:32N 35°22' E 139°51'0 0.0
2016-Jun-15 18:32N 35°22' E 139°51'0 0.0
2016-Jun-15 17:32N 35°22' E 139°51'0 0.0
2016-Jun-15 16:32N 35°22' E 139°51'0 0.0
2016-Jun-15 15:29N 35°22' E 139°51'0 0.0
2016-Jun-15 14:29N 35°22' E 139°51'0 0.0
2016-Jun-15 13:29N 35°22' E 139°51'0 0.0
2016-Jun-15 12:29N 35°22' E 139°51'0 0.0
2016-Jun-15 11:29N 35°22' E 139°51'0 0.0
2016-Jun-15 10:29N 35°22' E 139°51'0 0.0
2016-Jun-15 08:29N 35°22' E 139°51'0 0.0
2016-Jun-15 07:29N 35°22' E 139°51'0 0.0
2016-Jun-15 06:32N 35°22' E 139°51'0 0.0
2016-Jun-15 05:32N 35°22' E 139°51'0 0.0
2016-Jun-15 04:29N 35°22' E 139°51'0 0.0
2016-Jun-15 03:20N 35°22' E 139°51'0 0.0
2016-Jun-15 02:29N 35°22' E 139°51'0 0.0
2016-Jun-15 01:17N 35°22' E 139°51'0 0.0
2016-Jun-15 00:29N 35°22' E 139°51'0 0.0
2016-Jun-14 23:25N 35°22' E 139°51'0 0.1
2016-Jun-14 21:33N 35°22' E 139°51'2 1.6
2016-Jun-14 20:31N 35°22' E 139°49'0 0.0
2016-Jun-14 19:31N 35°22' E 139°49'0 0.0
2016-Jun-14 18:31N 35°22' E 139°49'0 0.0
2016-Jun-14 17:28N 35°22' E 139°49'0 0.0
2016-Jun-14 16:31N 35°22' E 139°49'0 0.0
2016-Jun-14 15:31N 35°22' E 139°49'0 0.0
2016-Jun-14 14:28N 35°22' E 139°49'0 0.0
2016-Jun-14 13:31N 35°22' E 139°49'0 0.0
2016-Jun-14 12:31N 35°22' E 139°49'0 0.0
2016-Jun-14 11:28N 35°23' E 139°49'0 0.1
2016-Jun-14 10:31N 35°23' E 139°49'0 0.0
2016-Jun-14 09:34N 35°22' E 139°49'0 0.0
2016-Jun-14 08:34N 35°22' E 139°49'3 2.8
2016-Jun-14 07:34N 35°25' E 139°49'17 8.6
2016-Jun-14 05:32N 35°41' E 139°57'0 0.0
2016-Jun-14 04:32N 35°41' E 139°57'0 0.0
2016-Jun-14 03:29N 35°41' E 139°57'0 0.0
2016-Jun-14 02:32N 35°41' E 139°57'0 0.0
2016-Jun-14 01:29N 35°41' E 139°57'0 0.0
2016-Jun-14 00:32N 35°41' E 139°57'0 0.0
2016-Jun-13 23:29N 35°41' E 139°57'0 0.0
2016-Jun-13 22:20N 35°41' E 139°57'0 0.0
2016-Jun-13 21:08N 35°41' E 139°57'0 0.0
2016-Jun-13 20:32N 35°41' E 139°57'0 0.5
2016-Jun-13 19:33N 35°41' E 139°57'0 0.5
2016-Jun-13 18:30N 35°40' E 139°57'0 0.0
2016-Jun-13 17:24N 35°40' E 139°57'0 0.0
2016-Jun-13 16:06N 35°40' E 139°57'0 0.0
2016-Jun-13 15:24N 35°40' E 139°57'0 0.0
2016-Jun-13 14:30N 35°40' E 139°57'0 0.0
2016-Jun-13 13:30N 35°40' E 139°57'0 0.0
2016-Jun-13 12:30N 35°40' E 139°57'0 0.0
2016-Jun-13 11:30N 35°40' E 139°57'0 0.0
2016-Jun-13 10:30N 35°40' E 139°57'0 0.0
2016-Jun-13 09:30N 35°40' E 139°57'0 0.0
2016-Jun-13 08:24N 35°40' E 139°57'0 0.0
2016-Jun-13 07:30N 35°40' E 139°57'0 0.0
2016-Jun-13 06:30N 35°40' E 139°57'0 0.0
2016-Jun-13 05:30N 35°40' E 139°57'0 0.0
2016-Jun-13 04:30N 35°40' E 139°57'0 0.0
2016-Jun-13 03:30N 35°40' E 139°57'0 0.0
2016-Jun-13 02:30N 35°40' E 139°57'0 0.0
2016-Jun-13 01:24N 35°40' E 139°57'0 0.0
2016-Jun-13 00:30N 35°40' E 139°57'0 0.0
2016-Jun-12 23:24N 35°40' E 139°57'0 0.2
2016-Jun-12 22:33N 35°40' E 139°57'3 3.5
2016-Jun-12 21:33N 35°37' E 139°58'0 0.0
2016-Jun-12 20:27N 35°37' E 139°58'0 0.0
2016-Jun-12 19:33N 35°37' E 139°58'0 0.0
2016-Jun-12 18:33N 35°37' E 139°58'0 0.1
2016-Jun-12 17:33N 35°37' E 139°58'0 0.0
2016-Jun-12 16:32N 35°37' E 139°58'0 0.0
2016-Jun-12 15:32N 35°37' E 139°58'0 0.0
2016-Jun-12 14:32N 35°37' E 139°58'0 0.0
2016-Jun-12 13:26N 35°37' E 139°58'0 0.0
2016-Jun-12 12:32N 35°37' E 139°58'0 0.0
2016-Jun-12 11:32N 35°37' E 139°58'0 0.0
2016-Jun-12 10:32N 35°37' E 139°58'0 0.0
2016-Jun-12 09:32N 35°37' E 139°58'0 0.0
2016-Jun-12 08:26N 35°37' E 139°58'3 3.7
2016-Jun-12 07:33N 35°34' E 139°56'1211.9
2016-Jun-12 06:33N 35°25' E 139°47'2210.8
2016-Jun-12 04:33N 35°03' E 139°43'1711.9
2016-Jun-12 03:08N 34°53' E 139°27'4511.2
2016-Jun-11 23:09N 34°34' E 138°38'182 9.3
2016-Jun-11 03:33N 34°10' E 134°59'1211.5
2016-Jun-11 02:31N 34°22' E 135°00'1212.0
2016-Jun-11 01:33N 34°29' E 135°11'1211.8
2016-Jun-11 00:33N 34°36' E 135°22'5 0.4
2016-Jun-10 13:12N 34°34' E 135°27'0 0.0
2016-Jun-10 08:31N 34°34' E 135°27'2 1.6
2016-Jun-10 07:31N 34°35' E 135°28'0 0.0
2016-Jun-10 06:31N 34°35' E 135°28'0 0.0
2016-Jun-10 05:19N 34°35' E 135°28'0 0.1
2016-Jun-10 04:25N 34°35' E 135°28'0 0.0
2016-Jun-10 03:25N 34°35' E 135°28'0 0.0
2016-Jun-10 01:25N 34°35' E 135°28'0 0.1
2016-Jun-10 00:31N 34°35' E 135°28'0 0.0
2016-Jun-09 14:30N 34°35' E 135°28'0 0.0
2016-Jun-09 02:28N 34°35' E 135°28'6 6.9
2016-Jun-09 01:33N 34°36' E 135°20'1312.8
2016-Jun-09 00:33N 34°35' E 135°05'1211.2
2016-Jun-08 23:28N 34°38' E 134°51'3 0.2
2016-Jun-08 10:24N 34°37' E 134°54'  

Dump ship's entire track history